createdAt,value
2017-04-19T00:00:10.398Z,0
2017-04-19T00:00:50.877Z,0
2017-04-19T00:01:31.348Z,0
2017-04-19T00:02:11.842Z,0
2017-04-19T00:02:52.483Z,0
2017-04-19T00:03:32.956Z,0
2017-04-19T00:04:13.401Z,0
2017-04-19T00:04:53.866Z,0
2017-04-19T00:05:34.366Z,0
2017-04-19T00:06:14.811Z,0
2017-04-19T00:06:55.330Z,0
2017-04-19T00:07:35.782Z,0
2017-04-19T00:08:16.260Z,0
2017-04-19T00:08:56.761Z,0
2017-04-19T00:09:37.228Z,0
2017-04-19T00:11:42.464Z,0
2017-04-19T00:12:30.260Z,0
2017-04-19T00:13:18.839Z,0
2017-04-19T00:14:07.640Z,0
2017-04-19T00:14:55.969Z,0
2017-04-19T00:15:40.085Z,0
2017-04-19T00:16:28.815Z,0
2017-04-19T00:17:17.210Z,0
2017-04-19T00:18:05.849Z,0
2017-04-19T00:18:51.376Z,0
2017-04-19T00:19:31.851Z,0
2017-04-19T00:20:12.334Z,0
2017-04-19T00:20:52.825Z,0
2017-04-19T00:21:33.277Z,0
2017-04-19T00:22:13.816Z,0
2017-04-19T00:22:54.241Z,0
2017-04-19T00:23:34.769Z,0
2017-04-19T00:24:15.300Z,0
2017-04-19T00:24:55.738Z,0
2017-04-19T00:25:36.220Z,0
2017-04-19T00:26:16.688Z,0
2017-04-19T00:26:57.184Z,0
2017-04-19T00:27:37.649Z,0
2017-04-19T00:28:18.127Z,0
2017-04-19T00:28:58.605Z,0
2017-04-19T00:29:39.075Z,0
2017-04-19T00:30:19.569Z,0
2017-04-19T00:31:00.041Z,0
2017-04-19T00:31:40.506Z,0
2017-04-19T00:32:20.998Z,0
2017-04-19T00:33:01.459Z,0
2017-04-19T00:33:41.935Z,0
2017-04-19T00:34:22.496Z,0
2017-04-19T00:35:02.988Z,0
2017-04-19T00:35:43.450Z,0
2017-04-19T00:36:23.890Z,0
2017-04-19T00:37:04.373Z,0
2017-04-19T00:37:44.894Z,0
2017-04-19T00:38:25.326Z,0
2017-04-19T00:39:05.825Z,0
2017-04-19T00:39:46.241Z,0
2017-04-19T00:40:26.712Z,0
2017-04-19T00:41:07.241Z,0
2017-04-19T00:41:47.690Z,0
2017-04-19T00:42:28.157Z,0
2017-04-19T00:43:08.644Z,0
2017-04-19T00:43:49.146Z,0
2017-04-19T00:44:29.579Z,0
2017-04-19T00:45:10.101Z,0
2017-04-19T00:45:50.529Z,0
2017-04-19T00:46:31.001Z,0
2017-04-19T00:47:11.452Z,0
2017-04-19T00:47:51.952Z,0
2017-04-19T00:48:32.434Z,0
2017-04-19T00:49:12.932Z,0
2017-04-19T00:49:53.385Z,0
2017-04-19T00:50:33.936Z,0
2017-04-19T00:51:14.440Z,0
2017-04-19T00:51:54.913Z,0
2017-04-19T00:52:35.424Z,0
2017-04-19T00:53:15.857Z,0
2017-04-19T00:53:56.374Z,0
2017-04-19T00:54:36.859Z,0
2017-04-19T00:55:17.389Z,0
2017-04-19T00:55:57.833Z,0
2017-04-19T00:56:38.296Z,0
2017-04-19T00:57:18.789Z,0
2017-04-19T00:57:59.279Z,0
2017-04-19T00:58:39.817Z,0
2017-04-19T00:59:20.281Z,0
2017-04-19T01:00:00.727Z,0
2017-04-19T01:00:41.178Z,0
2017-04-19T01:01:21.643Z,0
2017-04-19T01:02:02.155Z,0
2017-04-19T01:02:42.600Z,0
2017-04-19T01:03:23.067Z,0
2017-04-19T01:04:03.554Z,0
2017-04-19T01:04:44.005Z,0
2017-04-19T01:05:24.492Z,0
2017-04-19T01:06:04.945Z,0
2017-04-19T01:06:45.441Z,0
2017-04-19T01:07:25.905Z,0
2017-04-19T01:08:06.368Z,0
2017-04-19T01:08:46.866Z,0
2017-04-19T01:09:27.325Z,0
2017-04-19T01:10:07.805Z,0
2017-04-19T01:10:48.239Z,0
2017-04-19T01:11:28.731Z,0
2017-04-19T01:12:09.204Z,0
2017-04-19T01:12:49.626Z,0
2017-04-19T01:13:30.105Z,0
2017-04-19T01:14:10.616Z,0
2017-04-19T01:14:51.051Z,0
2017-04-19T01:15:31.525Z,0
2017-04-19T01:16:12.081Z,0
2017-04-19T01:16:52.561Z,0
2017-04-19T01:17:33.069Z,0
2017-04-19T01:18:13.502Z,0
2017-04-19T01:18:54.021Z,0
2017-04-19T01:19:34.509Z,0
2017-04-19T01:20:14.979Z,0
2017-04-19T01:20:55.431Z,0
2017-04-19T01:21:35.930Z,0
2017-04-19T01:22:16.404Z,0
2017-04-19T01:22:56.909Z,0
2017-04-19T01:23:37.561Z,0
2017-04-19T01:24:18.126Z,0
2017-04-19T01:24:58.597Z,0
2017-04-19T01:25:39.072Z,0
2017-04-19T01:26:19.523Z,0
2017-04-19T01:26:59.978Z,0
2017-04-19T01:27:40.499Z,0
2017-04-19T01:28:20.972Z,0
2017-04-19T01:29:01.497Z,0
2017-04-19T01:29:41.915Z,0
2017-04-19T01:30:22.531Z,0
2017-04-19T01:31:03.001Z,0
2017-04-19T01:31:43.492Z,0
2017-04-19T01:32:23.966Z,0
2017-04-19T01:33:04.440Z,0
2017-04-19T01:33:46.916Z,0
2017-04-19T01:34:27.380Z,0
2017-04-19T01:35:07.906Z,0
2017-04-19T01:35:48.378Z,0
2017-04-19T01:36:28.840Z,0
2017-04-19T01:37:09.319Z,0
2017-04-19T01:37:49.784Z,0
2017-04-19T01:38:30.254Z,0
2017-04-19T01:39:10.789Z,0
2017-04-19T01:39:51.229Z,0
2017-04-19T01:40:31.703Z,0
2017-04-19T01:41:12.180Z,0
2017-04-19T01:41:52.691Z,0
2017-04-19T01:42:33.163Z,0
2017-04-19T01:43:13.655Z,0
2017-04-19T01:43:54.140Z,0
2017-04-19T01:44:34.654Z,0
2017-04-19T01:45:15.211Z,0
2017-04-19T01:45:55.684Z,0
2017-04-19T01:46:36.163Z,0
2017-04-19T01:47:16.641Z,0
2017-04-19T01:47:57.147Z,0
2017-04-19T01:48:37.636Z,0
2017-04-19T01:49:18.128Z,0
2017-04-19T01:49:58.622Z,0
2017-04-19T01:50:39.024Z,0
2017-04-19T01:51:19.534Z,0
2017-04-19T01:52:00.007Z,0
2017-04-19T01:52:40.471Z,0
2017-04-19T01:53:20.963Z,0
2017-04-19T01:54:01.447Z,0
2017-04-19T01:54:41.927Z,0
2017-04-19T01:55:22.486Z,0
2017-04-19T01:56:02.903Z,0
2017-04-19T01:56:43.436Z,0
2017-04-19T01:57:23.926Z,0
2017-04-19T01:58:04.381Z,0
2017-04-19T01:58:44.824Z,0
2017-04-19T01:59:25.286Z,0
2017-04-19T02:00:05.796Z,0
2017-04-19T02:00:46.290Z,0
2017-04-19T02:01:26.726Z,0
2017-04-19T02:02:07.196Z,0
2017-04-19T02:02:47.652Z,0
2017-04-19T02:03:28.153Z,0
2017-04-19T02:04:08.628Z,0
2017-04-19T02:04:49.094Z,0
2017-04-19T02:05:29.540Z,0
2017-04-19T02:06:10.037Z,0
2017-04-19T02:06:50.507Z,0
2017-04-19T02:07:30.978Z,0
2017-04-19T02:08:11.499Z,0
2017-04-19T02:08:51.942Z,0
2017-04-19T02:09:32.448Z,0
2017-04-19T02:10:12.961Z,0
2017-04-19T02:10:53.438Z,0
2017-04-19T02:11:33.858Z,0
2017-04-19T02:12:14.410Z,0
2017-04-19T02:12:54.911Z,0
2017-04-19T02:13:35.434Z,0
2017-04-19T02:14:15.854Z,0
2017-04-19T02:14:56.367Z,0
2017-04-19T02:15:36.857Z,0
2017-04-19T02:16:17.290Z,0
2017-04-19T02:16:57.786Z,0
2017-04-19T02:17:38.269Z,0
2017-04-19T02:18:18.756Z,0
2017-04-19T02:18:59.225Z,0
2017-04-19T02:19:39.703Z,0
2017-04-19T02:20:20.173Z,0
2017-04-19T02:21:00.638Z,0
2017-04-19T02:21:41.160Z,0
2017-04-19T02:22:21.607Z,0
2017-04-19T02:23:02.064Z,0
2017-04-19T02:23:42.565Z,0
2017-04-19T02:24:23.019Z,0
2017-04-19T02:25:03.539Z,0
2017-04-19T02:25:43.993Z,0
2017-04-19T02:26:24.473Z,0
2017-04-19T02:27:04.952Z,0
2017-04-19T02:27:45.416Z,0
2017-04-19T02:28:25.885Z,0
2017-04-19T02:29:06.370Z,0
2017-04-19T02:29:46.884Z,0
2017-04-19T02:30:27.334Z,0
2017-04-19T02:31:07.853Z,0
2017-04-19T02:31:48.346Z,0
2017-04-19T02:32:28.778Z,0
2017-04-19T02:33:09.257Z,0
2017-04-19T02:33:49.707Z,0
2017-04-19T02:34:30.208Z,0
2017-04-19T02:35:10.698Z,0
2017-04-19T02:35:51.159Z,0
2017-04-19T02:36:31.656Z,0
2017-04-19T02:37:12.143Z,0
2017-04-19T02:37:52.670Z,0
2017-04-19T02:38:33.157Z,0
2017-04-19T02:39:15.419Z,0
2017-04-19T02:39:55.898Z,0
2017-04-19T02:40:36.381Z,0
2017-04-19T02:41:16.833Z,0
2017-04-19T02:41:57.320Z,0
2017-04-19T02:42:37.804Z,0
2017-04-19T02:43:18.328Z,0
2017-04-19T02:43:58.864Z,0
2017-04-19T02:44:39.306Z,0
2017-04-19T02:45:19.808Z,0
2017-04-19T02:46:00.313Z,0
2017-04-19T02:46:40.745Z,0
2017-04-19T02:47:21.231Z,0
2017-04-19T02:48:01.732Z,0
2017-04-19T02:48:42.188Z,0
2017-04-19T02:49:22.717Z,0
2017-04-19T02:50:03.189Z,0
2017-04-19T02:50:43.881Z,0
2017-04-19T02:51:24.301Z,0
2017-04-19T02:52:04.820Z,0
2017-04-19T02:52:45.278Z,0
2017-04-19T02:53:27.399Z,0
2017-04-19T02:54:07.880Z,0
2017-04-19T02:54:48.356Z,0
2017-04-19T02:55:28.835Z,0
2017-04-19T02:56:09.314Z,0
2017-04-19T02:56:49.815Z,0
2017-04-19T02:57:30.312Z,0
2017-04-19T02:58:10.796Z,0
2017-04-19T02:58:51.261Z,0
2017-04-19T02:59:32.327Z,0
2017-04-19T03:00:12.780Z,0
2017-04-19T03:00:53.292Z,0
2017-04-19T03:01:33.793Z,0
2017-04-19T03:02:14.266Z,0
2017-04-19T03:02:54.719Z,0
2017-04-19T03:03:35.203Z,0
2017-04-19T03:04:15.658Z,0
2017-04-19T03:04:57.916Z,0
2017-04-19T03:05:38.422Z,0
2017-04-19T03:06:18.878Z,0
2017-04-19T03:06:59.406Z,0
2017-04-19T03:07:39.834Z,0
2017-04-19T03:08:20.372Z,0
2017-04-19T03:09:00.829Z,0
2017-04-19T03:09:41.305Z,0
2017-04-19T03:10:21.792Z,0
2017-04-19T03:11:06.835Z,0
2017-04-19T03:11:47.303Z,0
2017-04-19T03:12:27.806Z,0
2017-04-19T03:13:09.152Z,0
2017-04-19T03:13:49.645Z,0
2017-04-19T03:14:30.089Z,0
2017-04-19T03:15:10.570Z,0
2017-04-19T03:15:51.063Z,0
2017-04-19T03:16:31.511Z,0
2017-04-19T03:18:53.354Z,0
2017-04-19T03:19:41.805Z,0
2017-04-19T03:20:30.299Z,0
2017-04-19T03:21:19.209Z,0
2017-04-19T03:22:07.445Z,0
2017-04-19T03:22:56.108Z,0
2017-04-19T03:23:44.700Z,0
2017-04-19T03:24:32.817Z,0
2017-04-19T03:25:22.169Z,0
2017-04-19T03:26:10.238Z,0
2017-04-19T03:26:58.949Z,0
2017-04-19T03:27:47.620Z,0
2017-04-19T03:29:51.368Z,0
2017-04-19T03:30:39.236Z,0
2017-04-19T03:31:27.598Z,0
2017-04-19T03:32:16.651Z,0
2017-04-19T03:33:04.750Z,0
2017-04-19T03:33:53.310Z,0
2017-04-19T03:34:40.772Z,0
2017-04-19T03:35:29.131Z,0
2017-04-19T03:36:17.546Z,0
2017-04-19T03:37:06.147Z,0
2017-04-19T03:37:54.817Z,4
2017-04-19T03:38:41.543Z,4
2017-04-19T03:39:22.036Z,4
2017-04-19T03:40:02.574Z,0
2017-04-19T03:40:43.020Z,0
2017-04-19T03:41:23.502Z,4
2017-04-19T03:42:03.960Z,4
2017-04-19T03:42:44.433Z,4
2017-04-19T03:43:24.906Z,4
2017-04-19T03:44:05.422Z,4
2017-04-19T03:44:45.847Z,4
2017-04-19T03:45:26.325Z,4
2017-04-19T03:46:06.775Z,4
2017-04-19T03:46:47.307Z,8
2017-04-19T03:47:27.798Z,8
2017-04-19T03:48:08.433Z,12
2017-04-19T03:48:48.755Z,8
2017-04-19T03:49:29.260Z,8
2017-04-19T03:50:09.741Z,12
2017-04-19T03:50:50.155Z,12
2017-04-19T03:51:30.629Z,16
2017-04-19T03:52:11.113Z,16
2017-04-19T03:52:51.637Z,16
2017-04-19T03:53:32.080Z,20
2017-04-19T03:54:12.574Z,24
2017-04-19T03:54:53.055Z,28
2017-04-19T03:55:33.541Z,28
2017-04-19T03:56:14.056Z,32
2017-04-19T03:56:54.522Z,32
2017-04-19T03:57:34.960Z,36
2017-04-19T03:58:15.438Z,36
2017-04-19T03:58:55.971Z,40
2017-04-19T03:59:36.450Z,44
2017-04-19T04:00:16.944Z,52
2017-04-19T04:00:57.415Z,56
2017-04-19T04:01:37.846Z,60
2017-04-19T04:02:18.336Z,64
2017-04-19T04:02:58.819Z,72
2017-04-19T04:03:39.281Z,76
2017-04-19T04:04:19.728Z,84
2017-04-19T04:05:00.222Z,92
2017-04-19T04:05:40.684Z,96
2017-04-19T04:06:21.118Z,108
2017-04-19T04:07:01.591Z,116
2017-04-19T04:07:42.056Z,124
2017-04-19T04:08:22.557Z,132
2017-04-19T04:09:03.011Z,140
2017-04-19T04:09:43.492Z,152
2017-04-19T04:10:23.942Z,160
2017-04-19T04:11:04.415Z,172
2017-04-19T04:11:44.879Z,184
2017-04-19T04:12:25.360Z,196
2017-04-19T04:13:05.827Z,208
2017-04-19T04:13:46.283Z,220
2017-04-19T04:14:26.835Z,232
2017-04-19T04:15:07.273Z,248
2017-04-19T04:15:47.750Z,264
2017-04-19T04:16:28.270Z,276
2017-04-19T04:17:08.716Z,292
2017-04-19T04:17:49.213Z,304
2017-04-19T04:18:29.663Z,320
2017-04-19T04:19:10.116Z,340
2017-04-19T04:19:50.582Z,356
2017-04-19T04:20:31.078Z,372
2017-04-19T04:21:11.549Z,388
2017-04-19T04:21:52.023Z,404
2017-04-19T04:22:32.484Z,424
2017-04-19T04:23:12.965Z,440
2017-04-19T04:23:53.453Z,460
2017-04-19T04:24:33.888Z,476
2017-04-19T04:25:14.394Z,496
2017-04-19T04:25:54.835Z,520
2017-04-19T04:26:35.321Z,536
2017-04-19T04:27:15.806Z,556
2017-04-19T04:27:56.304Z,576
2017-04-19T04:28:36.778Z,600
2017-04-19T04:29:17.246Z,616
2017-04-19T04:29:57.686Z,640
2017-04-19T04:30:38.152Z,660
2017-04-19T04:31:18.616Z,680
2017-04-19T04:31:59.093Z,700
2017-04-19T04:32:39.583Z,720
2017-04-19T04:33:20.053Z,744
2017-04-19T04:34:00.538Z,764
2017-04-19T04:34:41.051Z,788
2017-04-19T04:35:21.500Z,808
2017-04-19T04:36:01.967Z,828
2017-04-19T04:36:42.447Z,852
2017-04-19T04:37:22.890Z,872
2017-04-19T04:38:03.388Z,892
2017-04-19T04:38:43.989Z,916
2017-04-19T04:39:24.486Z,936
2017-04-19T04:40:04.980Z,956
2017-04-19T04:40:45.398Z,976
2017-04-19T04:41:25.924Z,996
2017-04-19T04:42:06.358Z,1020
2017-04-19T04:42:46.854Z,1040
2017-04-19T04:43:27.358Z,1060
2017-04-19T04:44:07.808Z,1084
2017-04-19T04:44:48.268Z,1104
2017-04-19T04:45:28.744Z,1120
2017-04-19T04:46:09.208Z,1144
2017-04-19T04:46:49.657Z,1164
2017-04-19T04:47:30.137Z,1184
2017-04-19T04:48:10.631Z,1204
2017-04-19T04:48:51.151Z,1224
2017-04-19T04:49:31.673Z,1244
2017-04-19T04:50:12.167Z,1264
2017-04-19T04:50:52.609Z,1284
2017-04-19T04:51:33.081Z,1300
2017-04-19T04:52:13.750Z,1324
2017-04-19T04:52:54.218Z,1340
2017-04-19T04:53:34.672Z,1360
2017-04-19T04:54:15.173Z,1380
2017-04-19T04:54:55.606Z,1400
2017-04-19T04:55:37.608Z,1416
2017-04-19T04:56:18.066Z,1436
2017-04-19T04:56:58.533Z,1452
2017-04-19T04:57:39.042Z,1476
2017-04-19T04:58:19.479Z,1492
2017-04-19T04:58:59.946Z,1508
2017-04-19T04:59:40.392Z,1528
2017-04-19T05:00:20.852Z,1540
2017-04-19T05:01:01.345Z,1560
2017-04-19T05:01:41.823Z,1580
2017-04-19T05:02:22.281Z,1596
2017-04-19T05:03:02.748Z,1612
2017-04-19T05:03:43.258Z,1628
2017-04-19T05:04:23.839Z,1644
2017-04-19T05:05:04.352Z,1664
2017-04-19T05:05:44.808Z,1676
2017-04-19T05:06:25.308Z,1692
2017-04-19T05:07:05.783Z,1708
2017-04-19T05:07:46.253Z,1724
2017-04-19T05:08:26.727Z,1740
2017-04-19T05:09:07.245Z,1756
2017-04-19T05:11:27.276Z,1808
2017-04-19T05:12:16.185Z,1824
2017-04-19T05:13:04.314Z,1844
2017-04-19T05:13:53.209Z,1864
2017-04-19T05:14:37.362Z,1876
2017-04-19T05:15:24.983Z,1896
2017-04-19T05:16:13.027Z,1908
2017-04-19T05:17:01.369Z,1928
2017-04-19T05:17:43.063Z,1944
2017-04-19T05:18:23.534Z,1956
2017-04-19T05:19:04.006Z,1972
2017-04-19T05:19:44.489Z,1984
2017-04-19T05:20:24.965Z,1996
2017-04-19T05:21:05.400Z,2008
2017-04-19T05:23:40.597Z,2056
2017-04-19T05:26:26.690Z,2108
2017-04-19T05:27:14.979Z,2124
2017-04-19T05:28:03.802Z,2136
2017-04-19T05:28:47.246Z,2152
2017-04-19T05:29:35.845Z,2164
2017-04-19T05:30:25.306Z,2176
2017-04-19T05:33:11.081Z,2220
2017-04-19T05:33:57.252Z,2232
2017-04-19T05:34:45.432Z,2244
2017-04-19T05:35:34.366Z,2260
2017-04-19T05:36:17.929Z,2272
2017-04-19T05:36:58.440Z,2280
2017-04-19T05:37:38.855Z,2292
2017-04-19T05:38:19.380Z,2304
2017-04-19T05:38:59.853Z,2308
2017-04-19T05:39:40.350Z,2320
2017-04-19T05:40:20.858Z,2332
2017-04-19T05:41:01.303Z,2340
2017-04-19T05:41:41.776Z,2352
2017-04-19T05:42:22.251Z,2360
2017-04-19T05:43:02.752Z,2368
2017-04-19T05:43:43.218Z,2376
2017-04-19T05:44:23.843Z,2384
2017-04-19T05:45:04.357Z,2396
2017-04-19T05:45:44.791Z,2404
2017-04-19T05:46:25.249Z,2412
2017-04-19T05:47:05.755Z,2424
2017-04-19T05:47:46.167Z,2428
2017-04-19T05:48:26.631Z,2436
2017-04-19T05:49:07.145Z,2444
2017-04-19T05:49:47.594Z,2456
2017-04-19T05:50:28.059Z,2460
2017-04-19T05:51:08.556Z,2468
2017-04-19T05:51:49.030Z,2476
2017-04-19T05:52:29.485Z,2488
2017-04-19T05:53:09.971Z,2496
2017-04-19T05:53:50.494Z,2504
2017-04-19T05:54:31.134Z,2508
2017-04-19T05:55:11.611Z,2516
2017-04-19T05:55:52.141Z,2524
2017-04-19T05:56:32.713Z,2528
2017-04-19T05:57:13.219Z,2536
2017-04-19T05:57:53.818Z,2544
2017-04-19T05:58:34.325Z,2552
2017-04-19T05:59:14.802Z,2552
2017-04-19T05:59:55.269Z,2560
2017-04-19T06:00:35.769Z,2568
2017-04-19T06:01:16.789Z,2576
2017-04-19T06:01:57.331Z,2580
2017-04-19T06:02:38.071Z,2588
2017-04-19T06:03:18.579Z,2592
2017-04-19T06:03:59.051Z,2596
2017-04-19T06:04:39.515Z,2604
2017-04-19T06:05:19.974Z,2608
2017-04-19T06:06:00.451Z,2616
2017-04-19T06:06:40.924Z,2620
2017-04-19T06:07:21.448Z,2624
2017-04-19T06:08:01.892Z,2632
2017-04-19T06:08:43.239Z,2636
2017-04-19T06:09:23.701Z,2640
2017-04-19T06:10:04.207Z,2648
2017-04-19T06:10:44.656Z,2652
2017-04-19T06:11:25.109Z,2660
2017-04-19T06:12:05.581Z,2664
2017-04-19T06:12:46.123Z,2668
2017-04-19T06:13:26.563Z,2672
2017-04-19T06:14:07.029Z,2676
2017-04-19T06:14:47.555Z,2684
2017-04-19T06:15:28.046Z,2688
2017-04-19T06:16:08.693Z,2692
2017-04-19T06:16:49.230Z,2696
2017-04-19T06:17:29.696Z,2700
2017-04-19T06:18:10.134Z,2708
2017-04-19T06:18:50.669Z,2712
2017-04-19T06:19:31.183Z,2716
2017-04-19T06:20:11.671Z,2720
2017-04-19T06:20:52.106Z,2724
2017-04-19T06:21:32.562Z,2732
2017-04-19T06:22:13.068Z,2736
2017-04-19T06:22:53.529Z,2740
2017-04-19T06:23:34.058Z,2744
2017-04-19T06:24:14.497Z,2748
2017-04-19T06:24:54.964Z,2752
2017-04-19T06:25:35.494Z,2756
2017-04-19T06:26:16.038Z,2764
2017-04-19T06:26:56.502Z,2764
2017-04-19T06:27:37.000Z,2768
2017-04-19T06:28:17.547Z,2772
2017-04-19T06:28:57.975Z,2776
2017-04-19T06:29:38.441Z,2784
2017-04-19T06:30:18.922Z,2784
2017-04-19T06:30:59.387Z,2792
2017-04-19T06:31:39.868Z,2796
2017-04-19T06:32:20.412Z,2800
2017-04-19T06:33:00.885Z,2804
2017-04-19T06:33:41.361Z,2808
2017-04-19T06:34:21.813Z,2812
2017-04-19T06:35:02.268Z,2816
2017-04-19T06:35:42.796Z,2820
2017-04-19T06:36:23.262Z,2824
2017-04-19T06:37:03.746Z,2828
2017-04-19T06:37:44.187Z,2832
2017-04-19T06:38:24.674Z,2840
2017-04-19T06:39:05.100Z,2840
2017-04-19T06:39:45.577Z,2836
2017-04-19T06:40:26.062Z,2828
2017-04-19T06:41:06.523Z,2840
2017-04-19T06:41:47.042Z,2836
2017-04-19T06:42:27.504Z,2788
2017-04-19T06:43:08.009Z,2856
2017-04-19T06:43:48.483Z,2860
2017-04-19T06:44:29.052Z,2868
2017-04-19T06:45:09.566Z,2872
2017-04-19T06:45:50.039Z,2876
2017-04-19T06:46:30.502Z,2876
2017-04-19T06:47:10.992Z,2880
2017-04-19T06:47:51.490Z,2884
2017-04-19T06:48:31.977Z,2888
2017-04-19T06:49:12.462Z,2896
2017-04-19T06:49:53.005Z,2896
2017-04-19T06:50:33.526Z,2904
2017-04-19T06:51:13.977Z,2908
2017-04-19T06:51:54.446Z,2912
2017-04-19T06:52:34.916Z,2916
2017-04-19T06:53:15.431Z,2924
2017-04-19T06:53:55.964Z,2924
2017-04-19T06:54:36.436Z,2928
2017-04-19T06:55:16.890Z,2928
2017-04-19T06:55:57.364Z,2936
2017-04-19T06:56:37.968Z,2936
2017-04-19T06:57:18.515Z,2940
2017-04-19T06:57:59.014Z,2944
2017-04-19T06:58:39.546Z,2944
2017-04-19T06:59:19.989Z,2948
2017-04-19T07:00:00.496Z,2952
2017-04-19T07:00:47.308Z,2952
2017-04-19T07:01:39.120Z,2952
2017-04-19T07:02:25.753Z,2960
2017-04-19T07:03:06.278Z,2960
2017-04-19T07:03:46.734Z,2964
2017-04-19T07:04:27.285Z,2964
2017-04-19T07:05:07.755Z,2968
2017-04-19T07:05:48.243Z,2972
2017-04-19T07:06:28.765Z,2976
2017-04-19T07:07:09.234Z,2972
2017-04-19T07:07:49.734Z,2976
2017-04-19T07:08:30.293Z,2980
2017-04-19T07:09:10.752Z,2980
2017-04-19T07:09:51.295Z,2984
2017-04-19T07:10:31.731Z,2984
2017-04-19T07:11:12.208Z,2988
2017-04-19T07:11:52.734Z,2992
2017-04-19T07:12:33.215Z,2992
2017-04-19T07:13:13.679Z,2996
2017-04-19T07:13:54.206Z,2996
2017-04-19T07:14:34.690Z,3000
2017-04-19T07:15:15.211Z,3000
2017-04-19T07:15:56.373Z,3008
2017-04-19T07:16:36.587Z,3012
2017-04-19T07:17:17.106Z,3012
2017-04-19T07:17:58.216Z,3012
2017-04-19T07:18:38.718Z,3020
2017-04-19T07:19:19.203Z,3016
2017-04-19T07:19:59.677Z,3020
2017-04-19T07:20:40.258Z,3024
2017-04-19T07:21:20.695Z,3020
2017-04-19T07:22:01.297Z,3032
2017-04-19T07:22:41.799Z,3032
2017-04-19T07:23:22.915Z,3036
2017-04-19T07:24:04.367Z,3032
2017-04-19T07:24:44.810Z,3032
2017-04-19T07:25:25.261Z,3032
2017-04-19T07:26:05.824Z,3036
2017-04-19T07:26:46.303Z,3040
2017-04-19T07:27:26.785Z,3044
2017-04-19T07:28:07.226Z,3048
2017-04-19T07:28:47.717Z,3048
2017-04-19T07:29:28.212Z,3052
2017-04-19T07:30:08.789Z,3056
2017-04-19T07:30:49.308Z,3056
2017-04-19T07:31:29.800Z,3060
2017-04-19T07:32:11.442Z,3064
2017-04-19T07:32:51.952Z,3064
2017-04-19T07:33:32.786Z,3064
2017-04-19T07:34:13.594Z,3068
2017-04-19T07:34:54.363Z,3068
2017-04-19T07:35:35.054Z,3072
2017-04-19T07:36:15.765Z,3072
2017-04-19T07:36:56.481Z,3072
2017-04-19T07:37:37.152Z,3072
2017-04-19T07:38:18.361Z,3076
2017-04-19T07:38:58.864Z,3076
2017-04-19T07:39:39.325Z,3076
2017-04-19T07:40:20.209Z,3076
2017-04-19T07:41:00.674Z,3080
2017-04-19T07:41:42.860Z,3084
2017-04-19T07:42:23.349Z,3084
2017-04-19T07:43:03.907Z,3084
2017-04-19T07:43:44.461Z,3084
2017-04-19T07:44:24.930Z,3088
2017-04-19T07:45:05.455Z,3084
2017-04-19T07:45:45.929Z,3084
2017-04-19T07:46:26.406Z,3084
2017-04-19T07:47:06.917Z,3088
2017-04-19T07:47:47.478Z,3092
2017-04-19T07:48:27.923Z,3100
2017-04-19T07:49:08.441Z,3104
2017-04-19T07:49:48.926Z,3108
2017-04-19T07:50:29.376Z,3108
2017-04-19T07:51:09.809Z,3104
2017-04-19T07:51:50.278Z,3104
2017-04-19T07:52:30.856Z,3104
2017-04-19T07:53:11.301Z,3104
2017-04-19T07:53:51.792Z,3104
2017-04-19T07:54:32.306Z,3104
2017-04-19T07:55:12.755Z,3108
2017-04-19T07:55:53.234Z,3112
2017-04-19T07:56:33.727Z,3112
2017-04-19T07:57:14.228Z,3116
2017-04-19T07:57:54.689Z,3120
2017-04-19T07:58:35.926Z,3124
2017-04-19T07:59:16.360Z,3128
2017-04-19T07:59:56.852Z,3128
2017-04-19T08:00:37.333Z,3132
2017-04-19T08:01:17.892Z,3140
2017-04-19T08:01:58.325Z,3144
2017-04-19T08:02:38.848Z,3148
2017-04-19T08:03:19.268Z,3148
2017-04-19T08:03:59.738Z,3152
2017-04-19T08:04:40.236Z,3156
2017-04-19T08:05:20.718Z,3156
2017-04-19T08:06:02.094Z,3164
2017-04-19T08:06:42.559Z,3168
2017-04-19T08:07:23.107Z,3168
2017-04-19T08:08:04.181Z,3168
2017-04-19T08:08:44.644Z,3172
2017-04-19T08:09:25.106Z,3176
2017-04-19T08:10:05.624Z,3176
2017-04-19T08:10:46.056Z,3180
2017-04-19T08:11:26.646Z,3184
2017-04-19T08:12:07.143Z,3192
2017-04-19T08:12:47.641Z,3192
2017-04-19T08:13:28.134Z,3196
2017-04-19T08:14:08.796Z,3204
2017-04-19T08:14:49.137Z,3204
2017-04-19T08:15:29.567Z,3204
2017-04-19T08:17:44.883Z,3216
2017-04-19T08:18:25.154Z,3224
2017-04-19T08:19:05.669Z,3228
2017-04-19T08:19:46.174Z,3224
2017-04-19T08:20:26.633Z,3232
2017-04-19T08:21:07.090Z,3244
2017-04-19T08:21:47.649Z,3252
2017-04-19T08:22:28.068Z,3256
2017-04-19T08:23:08.542Z,3264
2017-04-19T08:23:49.025Z,3272
2017-04-19T08:24:29.512Z,3276
2017-04-19T08:25:10.032Z,3276
2017-04-19T08:25:50.495Z,3272
2017-04-19T08:26:30.993Z,3268
2017-04-19T08:27:11.499Z,3268
2017-04-19T08:27:52.131Z,3268
2017-04-19T08:28:33.823Z,3276
2017-04-19T08:29:14.398Z,3292
2017-04-19T08:29:54.920Z,3304
2017-04-19T08:30:37.948Z,3324
2017-04-19T08:31:21.096Z,3328
2017-04-19T08:32:01.593Z,3348
2017-04-19T08:32:42.088Z,3360
2017-04-19T08:33:22.573Z,3372
2017-04-19T08:34:03.021Z,3396
2017-04-19T08:34:43.495Z,3428
2017-04-19T08:35:23.972Z,3436
2017-04-19T08:36:04.537Z,3436
2017-04-19T08:36:44.937Z,3428
2017-04-19T08:37:25.471Z,3432
2017-04-19T08:38:05.920Z,3436
2017-04-19T08:38:46.410Z,3388
2017-04-19T08:39:26.890Z,3460
2017-04-19T08:40:07.396Z,3488
2017-04-19T08:40:47.827Z,3500
2017-04-19T08:41:28.312Z,3480
2017-04-19T08:42:08.888Z,3492
2017-04-19T08:42:49.379Z,3512
2017-04-19T08:43:30.764Z,3532
2017-04-19T08:44:11.272Z,3576
2017-04-19T08:44:51.786Z,3688
2017-04-19T08:45:32.231Z,3760
2017-04-19T08:46:12.712Z,3784
2017-04-19T08:46:53.208Z,3812
2017-04-19T08:47:33.706Z,3828
2017-04-19T08:48:14.159Z,3836
2017-04-19T08:48:54.777Z,3816
2017-04-19T08:49:35.162Z,3788
2017-04-19T08:50:15.712Z,3788
2017-04-19T08:50:56.149Z,3788
2017-04-19T08:51:36.815Z,3792
2017-04-19T08:52:17.305Z,3808
2017-04-19T08:52:58.255Z,3336
2017-04-19T08:53:38.768Z,3740
2017-04-19T08:54:19.232Z,3840
2017-04-19T08:54:59.735Z,3868
2017-04-19T08:55:40.218Z,3900
2017-04-19T08:56:20.796Z,3932
2017-04-19T08:57:01.275Z,3636
2017-04-19T08:57:41.731Z,3948
2017-04-19T08:58:22.200Z,3988
2017-04-19T08:59:02.648Z,4028
2017-04-19T08:59:43.134Z,4048
2017-04-19T09:00:23.646Z,4056
2017-04-19T09:01:04.137Z,4052
2017-04-19T09:01:44.590Z,4052
2017-04-19T09:02:25.094Z,4068
2017-04-19T09:03:06.274Z,4092
2017-04-19T09:03:46.732Z,4116
2017-04-19T09:04:27.257Z,4168
2017-04-19T09:05:07.719Z,4252
2017-04-19T09:05:48.806Z,4384
2017-04-19T09:06:29.530Z,4504
2017-04-19T09:07:10.095Z,4608
2017-04-19T09:07:50.600Z,4752
2017-04-19T09:08:31.229Z,4872
2017-04-19T09:09:11.736Z,4968
2017-04-19T09:09:52.214Z,5028
2017-04-19T09:10:32.740Z,5084
2017-04-19T09:11:13.169Z,4772
2017-04-19T09:11:53.717Z,4452
2017-04-19T09:12:34.289Z,4528
2017-04-19T09:13:14.771Z,4736
2017-04-19T09:13:55.297Z,4940
2017-04-19T09:14:35.878Z,5016
2017-04-19T09:15:16.351Z,5292
2017-04-19T09:15:56.871Z,5736
2017-04-19T09:16:37.308Z,6168
2017-04-19T09:17:19.087Z,6820
2017-04-19T09:18:01.218Z,7752
2017-04-19T09:18:41.717Z,8452
2017-04-19T09:19:22.205Z,9136
2017-04-19T09:20:02.681Z,9884
2017-04-19T09:20:43.190Z,10624
2017-04-19T09:21:23.647Z,11312
2017-04-19T09:22:04.134Z,11852
2017-04-19T09:22:44.574Z,12128
2017-04-19T09:23:25.071Z,12232
2017-04-19T09:24:05.540Z,12396
2017-04-19T09:24:46.069Z,12640
2017-04-19T09:25:26.864Z,12960
2017-04-19T09:26:07.736Z,13244
2017-04-19T09:26:48.586Z,13612
2017-04-19T09:27:29.280Z,13952
2017-04-19T09:28:09.988Z,14276
2017-04-19T09:28:50.754Z,14476
2017-04-19T09:29:31.543Z,14480
2017-04-19T09:30:12.277Z,14424
2017-04-19T09:30:52.909Z,14368
2017-04-19T09:31:33.467Z,14316
2017-04-19T09:32:14.057Z,14324
2017-04-19T09:32:54.606Z,14364
2017-04-19T09:33:35.086Z,14324
2017-04-19T09:34:15.601Z,14284
2017-04-19T09:34:56.049Z,14328
2017-04-19T09:35:36.549Z,14240
2017-04-19T09:36:19.718Z,14000
2017-04-19T09:37:00.202Z,13712
2017-04-19T09:37:43.221Z,13300
2017-04-19T09:38:27.951Z,12948
2017-04-19T09:39:11.265Z,12748
2017-04-19T09:39:52.637Z,12644
2017-04-19T09:40:34.000Z,12596
2017-04-19T09:41:14.596Z,12556
2017-04-19T09:41:55.431Z,12520
2017-04-19T09:42:35.885Z,12480
2017-04-19T09:43:16.362Z,12436